Flight Track Log - Related Links

Times and Time Zones

All times are in EDT time to prevent confusion due to time zone crossing. See the FLG3757 flight status page for this flight to view local times or setup timezone preferences in your user account.

Time Position Orientation Groundspeed Altitude Reporting Facility
EDT Latitude Longitude Course Direction KTS MPH feet Rate Location/Type
Wed 06:09:02 AM 42.1378 -75.9836 289° West 170 196 4,600  Level New York Center
Wed 06:10:02 AM 42.1358 -76.0786 268° West 166 191 6,700 2,600 Climbing New York Center
Wed 06:11:02 AM 42.1600 -76.1897 286° West 226 260 9,800 2,400 Climbing New York Center
Wed 06:12:02 AM 42.1928 -76.2903 294° West 253 291 11,500 2,050 Climbing New York Center
Wed 06:13:00 AM 42.2264 -76.5785 289° West  Level Estimated
Wed 06:13:02 AM 42.2233 -76.3936 292° West 280 322 13,900  Level New York Center
Wed 06:13:50 AM 42.2508 -76.4664 297° West 309 356 14,800 1,596 Climbing Cleveland Center
Wed 06:14:51 AM 42.2878 -76.5797 294° West 325 374 16,800 1,820 Climbing Cleveland Center
Wed 06:15:52 AM 42.3239 -76.6922 293° West 328 377 18,500 1,574 Climbing Cleveland Center
Wed 06:16:53 AM 42.3597 -76.8036 294° West 326 375 20,000 1,230 Climbing Cleveland Center
Wed 06:17:54 AM 42.3958 -76.9189 293° West 330 380 21,000 992 Climbing Cleveland Center
Wed 06:18:54 AM 42.4344 -77.0372 294° West 341 392 22,000 1,091 Climbing Cleveland Center
Wed 06:19:55 AM 42.4800 -77.1833 293° West 350 403 23,200 1,082 Climbing Cleveland Center
Wed 06:20:56 AM 42.5189 -77.3061 293° West 353 406 24,200 934 Climbing Cleveland Center
Wed 06:21:57 AM 42.5383 -77.4350 282° West 357 411 25,100 787 Climbing Cleveland Center
Wed 06:22:58 AM 42.5458 -77.5622 275° West 345 397 25,800 443 Climbing Cleveland Center
Wed 06:23:59 AM 42.5544 -77.6947 275° West 353 406 26,000 98 Climbing Cleveland Center
Wed 06:25:00 AM 42.5636 -77.8464 275° West 373 429 26,000  Level Cleveland Center
Wed 06:26:01 AM 42.5722 -77.9944 275° West 387 445 26,000  Level Cleveland Center
Wed 06:27:02 AM 42.5806 -78.1458 274° West 399 459 26,000  Level Cleveland Center
Wed 06:28:03 AM 42.5903 -78.2975 275° West 404 465 26,000  Level Cleveland Center
Wed 06:29:04 AM 42.5983 -78.4450 274° West 396 456 26,000  Level Cleveland Center
Wed 06:30:05 AM 42.6028 -78.5939 272° West 399 459 26,000  Level Cleveland Center
Wed 06:31:06 AM 42.6011 -78.7422 269° West 394 453 26,000  Level Cleveland Center
Wed 06:32:07 AM 42.6006 -78.8914 270° West 397 457 26,000  Level Cleveland Center
Wed 06:33:08 AM 42.5992 -79.0406 269° West 398 458 26,000  Level Cleveland Center
Wed 06:34:09 AM 42.5978 -79.1889 269° West 395 455 26,000  Level Cleveland Center
Wed 06:35:10 AM 42.5953 -79.3372 269° West 395 455 26,000  Level Cleveland Center
Wed 06:36:11 AM 42.5936 -79.4864 269° West 396 456 26,000  Level Cleveland Center
Wed 06:37:12 AM 42.5908 -79.6644 269° West 394 453 26,000  Level Cleveland Center
Wed 06:38:13 AM 42.5875 -79.8114 268° West 393 452 26,000  Level Cleveland Center
Wed 06:39:14 AM 42.5847 -79.9603 269° West 394 453 26,000  Level Cleveland Center
Wed 06:40:16 AM 42.5792 -80.1106 267° West 388 447 26,000  Level Cleveland Center
Wed 06:41:17 AM 42.5767 -80.2597 269° West 391 450 26,000  Level Cleveland Center
Wed 06:42:18 AM 42.5747 -80.4097 269° West 393 452 26,000  Level Cleveland Center
Wed 06:43:19 AM 42.5708 -80.5586 268° West 393 452 26,000  Level Cleveland Center
Wed 06:44:20 AM 42.5675 -80.7064 268° West 390 449 26,000  Level Cleveland Center
Wed 06:45:22 AM 42.5639 -80.8572 268° West 395 455 26,000 -585 Level Cleveland Center
Wed 06:46:23 AM 42.5600 -81.0047 268° West 391 450 24,800 -1,082 Descending Cleveland Center
Wed 06:47:24 AM 42.5556 -81.1550 268° West 394 453 23,800 -1,033 Descending Cleveland Center
Wed 06:48:25 AM 42.5517 -81.3036 268° West 393 452 22,700 -1,122 Descending Cleveland Center
Wed 06:49:27 AM 42.5467 -81.4525 267° West 393 452 21,500 -1,122 Descending Cleveland Center
Wed 06:50:28 AM 42.5422 -81.5936 268° West 378 435 20,400 -738 Descending Cleveland Center
Wed 06:51:29 AM 42.5381 -81.7289 268° West 361 415 20,000 -341 Descending Cleveland Center
Wed 06:52:31 AM 42.5319 -81.8867 267° West 363 418 19,700 -1,073 Descending Cleveland Center
Wed 06:53:32 AM 42.5278 -82.0228 268° West 364 419 17,800 -1,770 Descending Cleveland Center
Wed 06:54:33 AM 42.5231 -82.1489 267° West 345 397 16,100 -1,659 Descending Cleveland Center
Wed 06:55:35 AM 42.5194 -82.2683 268° West 324 373 14,400 -1,784 Descending Cleveland Center
Wed 06:55:47 AM 42.5186 -82.3017 268° West 310 357 13,900 -1,857 Descending Cleveland Center
Wed 06:56:17 AM 42.5167 -82.3608 267° West 310 357 13,100 -1,469 Descending Cleveland Center
Wed 06:56:36 AM 42.5142 -82.3842 262° West 313 360 12,700 -1,082 Descending Cleveland Center
Wed 06:57:18 AM 42.5100 -82.4875 267° West 329 379 12,000 -689 Descending Cleveland Center
Wed 06:57:37 AM 42.5086 -82.5064 264° West 321 369 12,000  Level Cleveland Center
Wed 06:58:18 AM 42.4872 -82.6006 253° West 318 366 12,000  Level Cleveland Center
Wed 06:58:39 AM 42.4808 -82.6186 244° Southwest 316 364 12,000 -327 Level Cleveland Center
Wed 06:59:13 AM 42.4553 -82.6953 246° West 310 357 11,700 -590 Descending Cleveland Center
Wed 06:59:40 AM 42.4450 -82.7206 241° Southwest 307 353 11,400 -1,343 Descending Cleveland Center
Wed 07:00:20 AM 42.4214 -82.7897 245° Southwest 244 281 10,200 -1,475 Descending Cleveland Center
Wed 07:00:41 AM 42.4139 -82.8033 233° Southwest 261 300 9,900 -1,800 Descending Cleveland Center
Wed 07:01:20 AM 42.4086 -82.8786 265° West 233 268 8,400 -2,032 Descending Cleveland Center
Wed 07:01:43 AM 42.4058 -82.9083 263° West 239 275 7,800 -1,770 Descending Cleveland Center
Wed 07:02:21 AM 42.4022 -82.9653 265° West 228 262 6,600 -1,672 Descending Cleveland Center
Wed 07:02:44 AM 42.4006 -82.9917 265° West 229 264 6,100 -655 Descending Cleveland Center
Wed 07:03:16 AM 42.3964 -83.0436 264° West 227 261 6,000 -387 Descending Cleveland Center
Wed 07:03:46 AM 42.3942 -83.0761 265° West 226 260 5,700 -1,100 Descending Cleveland Center
Wed 07:04:16 AM 42.3922 -83.1250 267° West 214 246 4,900 -1,574 Descending Cleveland Center
Wed 07:04:47 AM 42.3883 -83.1556 260° West 218 251 4,100 -885 Descending Cleveland Center
Wed 07:05:17 AM 42.3703 -83.1925 237° Southwest 181 208 4,000 -387 Descending Cleveland Center
Wed 07:05:49 AM 42.3592 -83.2117 232° Southwest 188 216 3,700 -645 Descending Cleveland Center
Wed 07:06:50 AM 42.3256 -83.2539 223° Southwest 174 200 3,000 -750 Descending Cleveland Center
Wed 07:07:25 AM 42.2969 -83.2756 209° Southwest 142 163 2,500 -677 Descending Cleveland Center
Wed 07:07:52 AM 42.2883 -83.2817 208° Southwest 161 185 2,300 -787 Descending Cleveland Center
Wed 07:08:26 AM 42.2658 -83.2994 210° Southwest 132 152 1,700 -689 Descending Cleveland Center
Wed 07:08:53 AM 42.2575 -83.3044 204° Southwest 141 162 1,600 -689 Descending Cleveland Center
Wed 07:09:27 AM 42.2347 -83.3233 212° Southwest 131 151 1,000 -484 Descending Cleveland Center
Wed 07:09:55 AM 42.2211 -83.3306 201° Southwest 135 155 1,100 214 Climbing Cleveland Center
Wed 07:11:00 AM 42.2000 -83.3500 236° Southwest  Level FlightAware Approximate
Wed 07:18:00 AM 42.2124 -83.3534 236° Southwest  Level Estimated
Wed 07:19:00 AM 42.2124 -83.3534 236° Southwest  Level Estimated

Login

Don't have an account? Register now (free) for customized features, flight alerts, and more!